sensor_id;sensor_type;location;lat;lon;timestamp;P1;durP1;ratioP1;P2;durP2;ratioP2
67272;SDS011;54190;49.770;9.250;2023-08-30T00:00:09;5.00;;;2.80;;
67272;SDS011;54190;49.770;9.250;2023-08-30T00:02:35;3.50;;;2.90;;
67272;SDS011;54190;49.770;9.250;2023-08-30T00:05:02;3.60;;;2.70;;
67272;SDS011;54190;49.770;9.250;2023-08-30T00:07:28;3.97;;;2.70;;
67272;SDS011;54190;49.770;9.250;2023-08-30T00:09:54;6.00;;;3.07;;
67272;SDS011;54190;49.770;9.250;2023-08-30T00:12:21;5.70;;;3.73;;
67272;SDS011;54190;49.770;9.250;2023-08-30T00:14:47;14.17;;;4.53;;
67272;SDS011;54190;49.770;9.250;2023-08-30T00:17:12;17.23;;;5.17;;
67272;SDS011;54190;49.770;9.250;2023-08-30T00:19:38;19.70;;;5.57;;
67272;SDS011;54190;49.770;9.250;2023-08-30T00:22:04;47.80;;;6.37;;
67272;SDS011;54190;49.770;9.250;2023-08-30T00:24:32;46.77;;;6.33;;
67272;SDS011;54190;49.770;9.250;2023-08-30T00:26:58;37.57;;;6.27;;
67272;SDS011;54190;49.770;9.250;2023-08-30T00:29:24;43.50;;;7.30;;
67272;SDS011;54190;49.770;9.250;2023-08-30T00:31:50;28.10;;;7.43;;
67272;SDS011;54190;49.770;9.250;2023-08-30T00:34:15;34.13;;;7.60;;
67272;SDS011;54190;49.770;9.250;2023-08-30T00:36:41;40.87;;;6.90;;
67272;SDS011;54190;49.770;9.250;2023-08-30T00:39:06;34.87;;;7.63;;
67272;SDS011;54190;49.770;9.250;2023-08-30T00:41:33;25.30;;;6.60;;
67272;SDS011;54190;49.770;9.250;2023-08-30T00:43:59;60.03;;;8.63;;
67272;SDS011;54190;49.770;9.250;2023-08-30T00:46:25;52.40;;;8.90;;
67272;SDS011;54190;49.770;9.250;2023-08-30T00:48:51;38.90;;;7.20;;
67272;SDS011;54190;49.770;9.250;2023-08-30T00:51:18;40.27;;;8.20;;
67272;SDS011;54190;49.770;9.250;2023-08-30T00:53:44;78.90;;;8.07;;
67272;SDS011;54190;49.770;9.250;2023-08-30T00:56:10;26.13;;;6.60;;
67272;SDS011;54190;49.770;9.250;2023-08-30T00:58:35;36.50;;;8.33;;
67272;SDS011;54190;49.770;9.250;2023-08-30T01:01:02;48.90;;;7.67;;
67272;SDS011;54190;49.770;9.250;2023-08-30T01:03:29;20.80;;;6.73;;
67272;SDS011;54190;49.770;9.250;2023-08-30T01:05:55;46.37;;;7.80;;
67272;SDS011;54190;49.770;9.250;2023-08-30T01:08:21;48.13;;;8.40;;
67272;SDS011;54190;49.770;9.250;2023-08-30T01:10:51;49.37;;;7.23;;
67272;SDS011;54190;49.770;9.250;2023-08-30T01:13:30;14.40;;;6.40;;
67272;SDS011;54190;49.770;9.250;2023-08-30T01:16:04;19.10;;;6.80;;
67272;SDS011;54190;49.770;9.250;2023-08-30T01:18:31;11.40;;;6.40;;
67272;SDS011;54190;49.770;9.250;2023-08-30T01:20:59;17.30;;;7.07;;
67272;SDS011;54190;49.770;9.250;2023-08-30T01:23:36;23.00;;;7.07;;
67272;SDS011;54190;49.770;9.250;2023-08-30T01:28:43;15.50;;;5.47;;
67272;SDS011;54190;49.770;9.250;2023-08-30T01:31:10;15.57;;;6.07;;
67272;SDS011;54190;49.770;9.250;2023-08-30T01:33:38;14.93;;;5.70;;
67272;SDS011;54190;49.770;9.250;2023-08-30T01:36:04;24.90;;;6.43;;
67272;SDS011;54190;49.770;9.250;2023-08-30T01:38:32;21.40;;;5.50;;
67272;SDS011;54190;49.770;9.250;2023-08-30T01:40:58;27.03;;;5.10;;
67272;SDS011;54190;49.770;9.250;2023-08-30T01:43:25;27.23;;;5.40;;
67272;SDS011;54190;49.770;9.250;2023-08-30T01:45:53;30.67;;;5.83;;
67272;SDS011;54190;49.770;9.250;2023-08-30T01:48:21;30.67;;;5.60;;
67272;SDS011;54190;49.770;9.250;2023-08-30T01:50:49;40.73;;;6.47;;
67272;SDS011;54190;49.770;9.250;2023-08-30T01:53:14;54.73;;;7.43;;
67272;SDS011;54190;49.770;9.250;2023-08-30T01:55:41;16.73;;;5.70;;
67272;SDS011;54190;49.770;9.250;2023-08-30T01:58:07;24.60;;;5.47;;
67272;SDS011;54190;49.770;9.250;2023-08-30T02:00:34;16.30;;;5.20;;
67272;SDS011;54190;49.770;9.250;2023-08-30T02:03:06;20.97;;;5.53;;
67272;SDS011;54190;49.770;9.250;2023-08-30T02:05:43;20.87;;;5.53;;
67272;SDS011;54190;49.770;9.250;2023-08-30T02:08:36;17.27;;;5.07;;
67272;SDS011;54190;49.770;9.250;2023-08-30T02:11:07;10.67;;;4.40;;
67272;SDS011;54190;49.770;9.250;2023-08-30T02:13:39;20.87;;;5.83;;
67272;SDS011;54190;49.770;9.250;2023-08-30T02:16:07;13.93;;;5.67;;
67272;SDS011;54190;49.770;9.250;2023-08-30T02:18:34;15.33;;;5.10;;
67272;SDS011;54190;49.770;9.250;2023-08-30T02:21:01;5.53;;;4.30;;
67272;SDS011;54190;49.770;9.250;2023-08-30T02:23:27;5.40;;;4.40;;
67272;SDS011;54190;49.770;9.250;2023-08-30T02:25:54;4.87;;;4.17;;
67272;SDS011;54190;49.770;9.250;2023-08-30T02:28:20;5.10;;;4.13;;
67272;SDS011;54190;49.770;9.250;2023-08-30T02:30:46;5.03;;;4.03;;
67272;SDS011;54190;49.770;9.250;2023-08-30T02:33:12;4.73;;;3.93;;
67272;SDS011;54190;49.770;9.250;2023-08-30T02:35:37;4.37;;;3.50;;
67272;SDS011;54190;49.770;9.250;2023-08-30T02:38:03;5.50;;;4.40;;
67272;SDS011;54190;49.770;9.250;2023-08-30T02:40:30;5.00;;;4.20;;
67272;SDS011;54190;49.770;9.250;2023-08-30T02:42:56;6.43;;;3.77;;
67272;SDS011;54190;49.770;9.250;2023-08-30T02:45:22;6.50;;;5.23;;
67272;SDS011;54190;49.770;9.250;2023-08-30T02:47:48;6.33;;;4.33;;
67272;SDS011;54190;49.770;9.250;2023-08-30T02:50:14;5.60;;;4.40;;
67272;SDS011;54190;49.770;9.250;2023-08-30T02:52:39;5.70;;;4.70;;
67272;SDS011;54190;49.770;9.250;2023-08-30T02:55:05;4.90;;;4.20;;
67272;SDS011;54190;49.770;9.250;2023-08-30T02:57:31;8.17;;;4.50;;
67272;SDS011;54190;49.770;9.250;2023-08-30T02:59:57;6.03;;;4.57;;
67272;SDS011;54190;49.770;9.250;2023-08-30T03:02:22;5.90;;;3.93;;
67272;SDS011;54190;49.770;9.250;2023-08-30T03:04:48;7.20;;;4.20;;
67272;SDS011;54190;49.770;9.250;2023-08-30T03:07:14;4.97;;;4.10;;
67272;SDS011;54190;49.770;9.250;2023-08-30T03:09:39;5.67;;;4.40;;
67272;SDS011;54190;49.770;9.250;2023-08-30T03:12:06;7.23;;;4.40;;
67272;SDS011;54190;49.770;9.250;2023-08-30T03:14:33;6.37;;;4.87;;
67272;SDS011;54190;49.770;9.250;2023-08-30T03:16:59;5.03;;;4.40;;
67272;SDS011;54190;49.770;9.250;2023-08-30T03:19:25;5.50;;;4.57;;
67272;SDS011;54190;49.770;9.250;2023-08-30T03:21:50;5.50;;;4.50;;
67272;SDS011;54190;49.770;9.250;2023-08-30T03:24:16;5.13;;;4.13;;
67272;SDS011;54190;49.770;9.250;2023-08-30T03:26:42;6.70;;;4.93;;
67272;SDS011;54190;49.770;9.250;2023-08-30T03:29:08;5.30;;;4.80;;
67272;SDS011;54190;49.770;9.250;2023-08-30T03:31:34;7.93;;;5.20;;
67272;SDS011;54190;49.770;9.250;2023-08-30T03:34:00;7.20;;;5.33;;
67272;SDS011;54190;49.770;9.250;2023-08-30T03:36:28;7.47;;;5.27;;
67272;SDS011;54190;49.770;9.250;2023-08-30T03:38:53;8.23;;;5.00;;
67272;SDS011;54190;49.770;9.250;2023-08-30T03:41:19;7.53;;;6.00;;
67272;SDS011;54190;49.770;9.250;2023-08-30T03:43:45;6.60;;;5.20;;
67272;SDS011;54190;49.770;9.250;2023-08-30T03:46:11;7.77;;;5.30;;
67272;SDS011;54190;49.770;9.250;2023-08-30T03:48:37;6.33;;;5.20;;
67272;SDS011;54190;49.770;9.250;2023-08-30T03:51:03;6.73;;;5.50;;
67272;SDS011;54190;49.770;9.250;2023-08-30T03:53:28;6.33;;;5.33;;
67272;SDS011;54190;49.770;9.250;2023-08-30T03:55:55;7.67;;;6.37;;
67272;SDS011;54190;49.770;9.250;2023-08-30T03:58:22;8.43;;;6.40;;
67272;SDS011;54190;49.770;9.250;2023-08-30T04:00:48;5.87;;;4.80;;
67272;SDS011;54190;49.770;9.250;2023-08-30T04:03:15;8.93;;;5.97;;
67272;SDS011;54190;49.770;9.250;2023-08-30T04:05:41;7.90;;;6.10;;
67272;SDS011;54190;49.770;9.250;2023-08-30T04:08:07;7.17;;;5.63;;
67272;SDS011;54190;49.770;9.250;2023-08-30T04:10:37;9.30;;;6.40;;
67272;SDS011;54190;49.770;9.250;2023-08-30T04:13:04;7.73;;;5.87;;
67272;SDS011;54190;49.770;9.250;2023-08-30T04:15:34;8.20;;;5.57;;
67272;SDS011;54190;49.770;9.250;2023-08-30T04:18:00;9.47;;;6.40;;
67272;SDS011;54190;49.770;9.250;2023-08-30T04:20:26;8.43;;;5.97;;
67272;SDS011;54190;49.770;9.250;2023-08-30T04:22:52;8.20;;;6.23;;
67272;SDS011;54190;49.770;9.250;2023-08-30T04:25:20;8.70;;;6.37;;
67272;SDS011;54190;49.770;9.250;2023-08-30T04:27:46;7.13;;;5.83;;
67272;SDS011;54190;49.770;9.250;2023-08-30T04:30:12;9.70;;;6.60;;
67272;SDS011;54190;49.770;9.250;2023-08-30T04:32:38;11.73;;;7.23;;
67272;SDS011;54190;49.770;9.250;2023-08-30T04:35:04;9.70;;;7.53;;
67272;SDS011;54190;49.770;9.250;2023-08-30T04:37:30;10.03;;;7.23;;
67272;SDS011;54190;49.770;9.250;2023-08-30T04:39:58;9.97;;;7.23;;
67272;SDS011;54190;49.770;9.250;2023-08-30T04:42:24;9.90;;;6.93;;
67272;SDS011;54190;49.770;9.250;2023-08-30T04:44:50;11.47;;;7.30;;
67272;SDS011;54190;49.770;9.250;2023-08-30T04:47:17;11.90;;;7.70;;
67272;SDS011;54190;49.770;9.250;2023-08-30T04:49:43;10.50;;;7.70;;
67272;SDS011;54190;49.770;9.250;2023-08-30T04:52:10;11.83;;;8.57;;
67272;SDS011;54190;49.770;9.250;2023-08-30T04:54:36;16.03;;;8.93;;
67272;SDS011;54190;49.770;9.250;2023-08-30T04:57:02;11.60;;;8.13;;
67272;SDS011;54190;49.770;9.250;2023-08-30T04:59:28;10.43;;;8.17;;
67272;SDS011;54190;49.770;9.250;2023-08-30T05:01:53;10.30;;;7.87;;
67272;SDS011;54190;49.770;9.250;2023-08-30T05:04:22;12.20;;;7.43;;
67272;SDS011;54190;49.770;9.250;2023-08-30T05:06:49;8.70;;;6.80;;
67272;SDS011;54190;49.770;9.250;2023-08-30T05:09:15;7.83;;;6.67;;
67272;SDS011;54190;49.770;9.250;2023-08-30T05:11:40;8.20;;;5.83;;
67272;SDS011;54190;49.770;9.250;2023-08-30T05:14:06;7.20;;;6.03;;
67272;SDS011;54190;49.770;9.250;2023-08-30T05:16:32;7.67;;;6.03;;
67272;SDS011;54190;49.770;9.250;2023-08-30T05:18:58;7.07;;;5.60;;
67272;SDS011;54190;49.770;9.250;2023-08-30T05:21:23;8.67;;;6.07;;
67272;SDS011;54190;49.770;9.250;2023-08-30T05:23:49;6.67;;;5.83;;
67272;SDS011;54190;49.770;9.250;2023-08-30T05:26:15;6.70;;;5.20;;
67272;SDS011;54190;49.770;9.250;2023-08-30T05:28:44;8.03;;;6.30;;
67272;SDS011;54190;49.770;9.250;2023-08-30T05:31:10;11.40;;;7.73;;
67272;SDS011;54190;49.770;9.250;2023-08-30T05:33:53;11.57;;;8.70;;
67272;SDS011;54190;49.770;9.250;2023-08-30T05:36:38;9.83;;;7.10;;
67272;SDS011;54190;49.770;9.250;2023-08-30T05:39:23;8.97;;;6.90;;
67272;SDS011;54190;49.770;9.250;2023-08-30T05:41:54;10.73;;;8.23;;
67272;SDS011;54190;49.770;9.250;2023-08-30T05:44:20;9.43;;;7.40;;
67272;SDS011;54190;49.770;9.250;2023-08-30T05:46:46;11.13;;;7.53;;
67272;SDS011;54190;49.770;9.250;2023-08-30T05:49:13;11.90;;;7.20;;
67272;SDS011;54190;49.770;9.250;2023-08-30T05:51:38;9.43;;;7.00;;
67272;SDS011;54190;49.770;9.250;2023-08-30T05:54:04;9.13;;;6.43;;
67272;SDS011;54190;49.770;9.250;2023-08-30T05:56:30;8.50;;;6.77;;
67272;SDS011;54190;49.770;9.250;2023-08-30T05:58:55;12.80;;;6.70;;
67272;SDS011;54190;49.770;9.250;2023-08-30T06:01:21;7.80;;;6.33;;
67272;SDS011;54190;49.770;9.250;2023-08-30T06:03:46;9.83;;;7.10;;
67272;SDS011;54190;49.770;9.250;2023-08-30T06:06:12;10.00;;;6.17;;
67272;SDS011;54190;49.770;9.250;2023-08-30T06:08:38;8.07;;;6.43;;
67272;SDS011;54190;49.770;9.250;2023-08-30T06:11:04;9.37;;;7.50;;
67272;SDS011;54190;49.770;9.250;2023-08-30T06:13:29;9.50;;;7.03;;
67272;SDS011;54190;49.770;9.250;2023-08-30T06:15:55;8.10;;;6.63;;
67272;SDS011;54190;49.770;9.250;2023-08-30T06:18:21;10.73;;;7.30;;
67272;SDS011;54190;49.770;9.250;2023-08-30T06:20:46;9.10;;;6.53;;
67272;SDS011;54190;49.770;9.250;2023-08-30T06:23:13;17.33;;;7.23;;
67272;SDS011;54190;49.770;9.250;2023-08-30T06:25:40;8.60;;;6.90;;
67272;SDS011;54190;49.770;9.250;2023-08-30T06:28:06;10.10;;;8.37;;
67272;SDS011;54190;49.770;9.250;2023-08-30T06:30:32;9.50;;;7.90;;
67272;SDS011;54190;49.770;9.250;2023-08-30T06:32:58;9.77;;;8.20;;
67272;SDS011;54190;49.770;9.250;2023-08-30T06:35:23;8.33;;;7.23;;
67272;SDS011;54190;49.770;9.250;2023-08-30T06:37:49;9.60;;;7.70;;
67272;SDS011;54190;49.770;9.250;2023-08-30T06:40:15;9.37;;;7.73;;
67272;SDS011;54190;49.770;9.250;2023-08-30T06:42:40;9.93;;;7.63;;
67272;SDS011;54190;49.770;9.250;2023-08-30T06:45:06;10.93;;;8.63;;
67272;SDS011;54190;49.770;9.250;2023-08-30T06:47:32;9.53;;;7.93;;
67272;SDS011;54190;49.770;9.250;2023-08-30T06:49:58;10.70;;;9.10;;
67272;SDS011;54190;49.770;9.250;2023-08-30T06:52:25;11.43;;;8.30;;
67272;SDS011;54190;49.770;9.250;2023-08-30T06:54:51;11.33;;;9.40;;
67272;SDS011;54190;49.770;9.250;2023-08-30T06:57:16;12.27;;;9.70;;
67272;SDS011;54190;49.770;9.250;2023-08-30T06:59:42;10.60;;;9.50;;
67272;SDS011;54190;49.770;9.250;2023-08-30T07:02:08;12.50;;;9.47;;
67272;SDS011;54190;49.770;9.250;2023-08-30T07:04:33;13.93;;;10.30;;
67272;SDS011;54190;49.770;9.250;2023-08-30T07:06:59;11.87;;;9.83;;
67272;SDS011;54190;49.770;9.250;2023-08-30T07:09:25;16.33;;;10.87;;
67272;SDS011;54190;49.770;9.250;2023-08-30T07:11:55;12.60;;;10.73;;
67272;SDS011;54190;49.770;9.250;2023-08-30T07:14:20;15.90;;;11.63;;
67272;SDS011;54190;49.770;9.250;2023-08-30T07:16:46;14.60;;;12.40;;
67272;SDS011;54190;49.770;9.250;2023-08-30T07:19:14;13.87;;;11.53;;
67272;SDS011;54190;49.770;9.250;2023-08-30T07:21:41;15.60;;;12.40;;
67272;SDS011;54190;49.770;9.250;2023-08-30T07:24:07;16.50;;;12.80;;
67272;SDS011;54190;49.770;9.250;2023-08-30T07:26:33;16.93;;;12.40;;
67272;SDS011;54190;49.770;9.250;2023-08-30T07:28:59;14.60;;;11.53;;
67272;SDS011;54190;49.770;9.250;2023-08-30T07:31:24;14.73;;;12.27;;
67272;SDS011;54190;49.770;9.250;2023-08-30T07:33:50;16.10;;;12.20;;
67272;SDS011;54190;49.770;9.250;2023-08-30T07:36:15;14.20;;;11.60;;
67272;SDS011;54190;49.770;9.250;2023-08-30T07:38:41;14.20;;;11.60;;
67272;SDS011;54190;49.770;9.250;2023-08-30T07:41:07;14.70;;;12.57;;
67272;SDS011;54190;49.770;9.250;2023-08-30T07:43:32;16.43;;;13.37;;
67272;SDS011;54190;49.770;9.250;2023-08-30T07:45:58;18.30;;;14.47;;
67272;SDS011;54190;49.770;9.250;2023-08-30T07:48:24;19.00;;;14.27;;
67272;SDS011;54190;49.770;9.250;2023-08-30T07:50:50;18.30;;;14.23;;
67272;SDS011;54190;49.770;9.250;2023-08-30T07:53:15;16.37;;;14.00;;
67272;SDS011;54190;49.770;9.250;2023-08-30T07:55:41;15.17;;;13.53;;
67272;SDS011;54190;49.770;9.250;2023-08-30T07:58:07;17.87;;;13.97;;
67272;SDS011;54190;49.770;9.250;2023-08-30T08:00:35;14.90;;;12.87;;
67272;SDS011;54190;49.770;9.250;2023-08-30T08:03:00;15.90;;;13.37;;
67272;SDS011;54190;49.770;9.250;2023-08-30T08:05:27;16.30;;;14.43;;
67272;SDS011;54190;49.770;9.250;2023-08-30T08:07:53;14.90;;;13.33;;
67272;SDS011;54190;49.770;9.250;2023-08-30T08:10:19;14.70;;;13.20;;
67272;SDS011;54190;49.770;9.250;2023-08-30T08:12:44;14.93;;;12.87;;
67272;SDS011;54190;49.770;9.250;2023-08-30T08:15:10;13.20;;;11.87;;
67272;SDS011;54190;49.770;9.250;2023-08-30T08:17:36;13.60;;;12.00;;
67272;SDS011;54190;49.770;9.250;2023-08-30T08:20:03;13.50;;;12.10;;
67272;SDS011;54190;49.770;9.250;2023-08-30T08:22:30;14.90;;;12.73;;
67272;SDS011;54190;49.770;9.250;2023-08-30T08:24:56;17.77;;;12.40;;
67272;SDS011;54190;49.770;9.250;2023-08-30T08:27:22;13.40;;;11.57;;
67272;SDS011;54190;49.770;9.250;2023-08-30T08:29:49;13.10;;;11.70;;
67272;SDS011;54190;49.770;9.250;2023-08-30T08:32:15;11.77;;;10.57;;
67272;SDS011;54190;49.770;9.250;2023-08-30T08:34:41;11.83;;;10.30;;
67272;SDS011;54190;49.770;9.250;2023-08-30T08:37:06;12.27;;;10.77;;
67272;SDS011;54190;49.770;9.250;2023-08-30T08:39:32;12.70;;;11.07;;
67272;SDS011;54190;49.770;9.250;2023-08-30T08:41:59;11.40;;;10.20;;
67272;SDS011;54190;49.770;9.250;2023-08-30T08:44:26;11.50;;;10.30;;
67272;SDS011;54190;49.770;9.250;2023-08-30T08:46:56;10.77;;;9.50;;
67272;SDS011;54190;49.770;9.250;2023-08-30T08:49:24;12.60;;;10.13;;
67272;SDS011;54190;49.770;9.250;2023-08-30T08:51:53;11.50;;;10.40;;
67272;SDS011;54190;49.770;9.250;2023-08-30T08:54:19;10.40;;;9.30;;
67272;SDS011;54190;49.770;9.250;2023-08-30T08:56:45;12.40;;;9.87;;
67272;SDS011;54190;49.770;9.250;2023-08-30T08:59:11;11.50;;;9.10;;
67272;SDS011;54190;49.770;9.250;2023-08-30T09:01:40;11.93;;;10.73;;
67272;SDS011;54190;49.770;9.250;2023-08-30T09:04:07;10.47;;;9.00;;
67272;SDS011;54190;49.770;9.250;2023-08-30T09:06:35;9.80;;;8.80;;
67272;SDS011;54190;49.770;9.250;2023-08-30T09:09:02;10.30;;;8.90;;
67272;SDS011;54190;49.770;9.250;2023-08-30T09:11:30;10.10;;;9.00;;
67272;SDS011;54190;49.770;9.250;2023-08-30T09:13:56;10.30;;;9.20;;
67272;SDS011;54190;49.770;9.250;2023-08-30T09:16:21;11.67;;;8.93;;
67272;SDS011;54190;49.770;9.250;2023-08-30T09:19:00;12.27;;;9.53;;
67272;SDS011;54190;49.770;9.250;2023-08-30T09:21:28;9.37;;;8.47;;
67272;SDS011;54190;49.770;9.250;2023-08-30T09:23:58;11.80;;;9.83;;
67272;SDS011;54190;49.770;9.250;2023-08-30T09:26:28;10.67;;;8.90;;
67272;SDS011;54190;49.770;9.250;2023-08-30T09:29:00;10.30;;;9.20;;
67272;SDS011;54190;49.770;9.250;2023-08-30T09:31:36;10.60;;;8.57;;
67272;SDS011;54190;49.770;9.250;2023-08-30T09:34:03;10.87;;;8.77;;
67272;SDS011;54190;49.770;9.250;2023-08-30T09:36:35;10.30;;;9.20;;
67272;SDS011;54190;49.770;9.250;2023-08-30T09:39:03;9.57;;;8.67;;
67272;SDS011;54190;49.770;9.250;2023-08-30T09:41:32;10.17;;;9.17;;
67272;SDS011;54190;49.770;9.250;2023-08-30T09:43:59;10.53;;;9.13;;
67272;SDS011;54190;49.770;9.250;2023-08-30T09:46:30;9.20;;;8.20;;
67272;SDS011;54190;49.770;9.250;2023-08-30T09:48:56;11.40;;;8.57;;
67272;SDS011;54190;49.770;9.250;2023-08-30T09:51:22;9.70;;;8.03;;
67272;SDS011;54190;49.770;9.250;2023-08-30T09:53:51;10.43;;;9.00;;
67272;SDS011;54190;49.770;9.250;2023-08-30T09:56:23;13.40;;;9.30;;
67272;SDS011;54190;49.770;9.250;2023-08-30T09:58:50;10.07;;;9.07;;
67272;SDS011;54190;49.770;9.250;2023-08-30T10:01:16;10.97;;;8.77;;
67272;SDS011;54190;49.770;9.250;2023-08-30T10:03:42;11.37;;;8.20;;
67272;SDS011;54190;49.770;9.250;2023-08-30T10:06:07;8.47;;;7.57;;
67272;SDS011;54190;49.770;9.250;2023-08-30T10:08:33;13.40;;;8.17;;
67272;SDS011;54190;49.770;9.250;2023-08-30T10:11:01;9.30;;;7.60;;
67272;SDS011;54190;49.770;9.250;2023-08-30T10:13:27;12.13;;;7.27;;
67272;SDS011;54190;49.770;9.250;2023-08-30T10:15:56;8.07;;;7.27;;
67272;SDS011;54190;49.770;9.250;2023-08-30T10:18:27;7.80;;;7.00;;
67272;SDS011;54190;49.770;9.250;2023-08-30T10:20:56;8.60;;;7.60;;
67272;SDS011;54190;49.770;9.250;2023-08-30T10:23:24;12.90;;;7.40;;
67272;SDS011;54190;49.770;9.250;2023-08-30T10:25:51;7.90;;;7.10;;
67272;SDS011;54190;49.770;9.250;2023-08-30T10:28:19;9.10;;;7.80;;
67272;SDS011;54190;49.770;9.250;2023-08-30T10:30:45;8.07;;;7.00;;
67272;SDS011;54190;49.770;9.250;2023-08-30T10:33:12;8.20;;;6.30;;
67272;SDS011;54190;49.770;9.250;2023-08-30T10:35:48;7.33;;;6.63;;
67272;SDS011;54190;49.770;9.250;2023-08-30T10:38:28;6.40;;;5.20;;
67272;SDS011;54190;49.770;9.250;2023-08-30T10:40:54;9.70;;;6.03;;
67272;SDS011;54190;49.770;9.250;2023-08-30T10:43:31;6.83;;;6.20;;
67272;SDS011;54190;49.770;9.250;2023-08-30T10:46:00;6.80;;;6.10;;
67272;SDS011;54190;49.770;9.250;2023-08-30T10:48:39;6.97;;;5.77;;
67272;SDS011;54190;49.770;9.250;2023-08-30T10:51:21;6.50;;;5.00;;
67272;SDS011;54190;49.770;9.250;2023-08-30T10:54:09;7.53;;;5.40;;
67272;SDS011;54190;49.770;9.250;2023-08-30T10:56:45;7.00;;;5.07;;
67272;SDS011;54190;49.770;9.250;2023-08-30T10:59:20;5.07;;;4.20;;
67272;SDS011;54190;49.770;9.250;2023-08-30T11:01:47;7.07;;;3.93;;
67272;SDS011;54190;49.770;9.250;2023-08-30T11:04:14;4.40;;;3.77;;
67272;SDS011;54190;49.770;9.250;2023-08-30T11:06:45;5.43;;;3.80;;
67272;SDS011;54190;49.770;9.250;2023-08-30T11:09:21;5.57;;;4.10;;
67272;SDS011;54190;49.770;9.250;2023-08-30T11:11:49;4.10;;;3.60;;
67272;SDS011;54190;49.770;9.250;2023-08-30T11:14:16;4.83;;;4.10;;
67272;SDS011;54190;49.770;9.250;2023-08-30T11:16:43;4.97;;;3.80;;
67272;SDS011;54190;49.770;9.250;2023-08-30T11:19:10;4.87;;;4.03;;
67272;SDS011;54190;49.770;9.250;2023-08-30T11:21:41;5.50;;;3.50;;
67272;SDS011;54190;49.770;9.250;2023-08-30T11:24:08;4.60;;;3.70;;
67272;SDS011;54190;49.770;9.250;2023-08-30T11:26:34;4.80;;;3.30;;
67272;SDS011;54190;49.770;9.250;2023-08-30T11:29:06;5.90;;;3.60;;
67272;SDS011;54190;49.770;9.250;2023-08-30T11:31:33;5.00;;;3.47;;
67272;SDS011;54190;49.770;9.250;2023-08-30T11:33:59;3.70;;;3.27;;
67272;SDS011;54190;49.770;9.250;2023-08-30T11:36:31;7.10;;;3.33;;
67272;SDS011;54190;49.770;9.250;2023-08-30T11:39:00;4.30;;;3.30;;
67272;SDS011;54190;49.770;9.250;2023-08-30T11:41:25;4.00;;;3.20;;
67272;SDS011;54190;49.770;9.250;2023-08-30T11:43:51;4.40;;;3.90;;
67272;SDS011;54190;49.770;9.250;2023-08-30T11:46:18;5.73;;;3.67;;
67272;SDS011;54190;49.770;9.250;2023-08-30T11:48:45;4.00;;;3.33;;
67272;SDS011;54190;49.770;9.250;2023-08-30T11:51:12;4.17;;;3.50;;
67272;SDS011;54190;49.770;9.250;2023-08-30T11:53:38;3.47;;;2.83;;
67272;SDS011;54190;49.770;9.250;2023-08-30T11:56:07;3.93;;;3.20;;
67272;SDS011;54190;49.770;9.250;2023-08-30T11:58:33;4.47;;;3.00;;
67272;SDS011;54190;49.770;9.250;2023-08-30T12:01:00;3.70;;;2.80;;
67272;SDS011;54190;49.770;9.250;2023-08-30T12:03:27;3.17;;;2.37;;
67272;SDS011;54190;49.770;9.250;2023-08-30T12:05:53;4.23;;;3.00;;
67272;SDS011;54190;49.770;9.250;2023-08-30T12:08:26;4.57;;;2.80;;
67272;SDS011;54190;49.770;9.250;2023-08-30T12:10:54;5.10;;;2.50;;
67272;SDS011;54190;49.770;9.250;2023-08-30T12:15:52;4.10;;;2.93;;
67272;SDS011;54190;49.770;9.250;2023-08-30T12:18:23;5.90;;;2.80;;
67272;SDS011;54190;49.770;9.250;2023-08-30T12:21:07;3.47;;;2.50;;
67272;SDS011;54190;49.770;9.250;2023-08-30T12:23:33;3.67;;;2.57;;
67272;SDS011;54190;49.770;9.250;2023-08-30T12:26:03;3.20;;;2.40;;
67272;SDS011;54190;49.770;9.250;2023-08-30T12:28:30;5.20;;;3.00;;
67272;SDS011;54190;49.770;9.250;2023-08-30T12:30:56;3.17;;;2.47;;
67272;SDS011;54190;49.770;9.250;2023-08-30T12:33:23;3.40;;;2.50;;
67272;SDS011;54190;49.770;9.250;2023-08-30T12:35:53;3.40;;;2.80;;
67272;SDS011;54190;49.770;9.250;2023-08-30T12:38:19;3.00;;;2.53;;
67272;SDS011;54190;49.770;9.250;2023-08-30T12:40:45;4.90;;;3.13;;
67272;SDS011;54190;49.770;9.250;2023-08-30T12:43:11;3.10;;;2.40;;
67272;SDS011;54190;49.770;9.250;2023-08-30T12:45:38;4.53;;;2.50;;
67272;SDS011;54190;49.770;9.250;2023-08-30T12:48:04;4.90;;;2.60;;
67272;SDS011;54190;49.770;9.250;2023-08-30T12:50:30;3.80;;;2.47;;
67272;SDS011;54190;49.770;9.250;2023-08-30T12:52:56;3.43;;;2.40;;
67272;SDS011;54190;49.770;9.250;2023-08-30T12:55:21;5.13;;;2.47;;
67272;SDS011;54190;49.770;9.250;2023-08-30T12:57:47;2.80;;;2.43;;
67272;SDS011;54190;49.770;9.250;2023-08-30T13:00:13;3.20;;;2.50;;
67272;SDS011;54190;49.770;9.250;2023-08-30T13:02:39;4.03;;;2.27;;
67272;SDS011;54190;49.770;9.250;2023-08-30T13:05:05;2.97;;;2.07;;
67272;SDS011;54190;49.770;9.250;2023-08-30T13:07:31;2.80;;;2.40;;
67272;SDS011;54190;49.770;9.250;2023-08-30T13:09:57;3.30;;;2.43;;
67272;SDS011;54190;49.770;9.250;2023-08-30T13:12:22;3.10;;;2.23;;
67272;SDS011;54190;49.770;9.250;2023-08-30T13:14:49;3.27;;;2.33;;
67272;SDS011;54190;49.770;9.250;2023-08-30T13:17:14;3.83;;;2.40;;
67272;SDS011;54190;49.770;9.250;2023-08-30T13:19:42;3.10;;;2.40;;
67272;SDS011;54190;49.770;9.250;2023-08-30T13:22:10;3.07;;;2.10;;
67272;SDS011;54190;49.770;9.250;2023-08-30T13:24:36;3.53;;;2.30;;
67272;SDS011;54190;49.770;9.250;2023-08-30T13:27:03;6.30;;;2.20;;
67272;SDS011;54190;49.770;9.250;2023-08-30T13:29:29;2.77;;;2.00;;
67272;SDS011;54190;49.770;9.250;2023-08-30T13:31:55;3.97;;;2.50;;
67272;SDS011;54190;49.770;9.250;2023-08-30T13:34:20;3.30;;;2.50;;
67272;SDS011;54190;49.770;9.250;2023-08-30T13:36:46;3.17;;;2.40;;
67272;SDS011;54190;49.770;9.250;2023-08-30T13:39:11;4.73;;;2.60;;
67272;SDS011;54190;49.770;9.250;2023-08-30T13:41:37;3.30;;;2.50;;
67272;SDS011;54190;49.770;9.250;2023-08-30T13:44:03;3.80;;;2.53;;
67272;SDS011;54190;49.770;9.250;2023-08-30T13:46:29;3.00;;;2.33;;
67272;SDS011;54190;49.770;9.250;2023-08-30T13:48:55;5.00;;;2.47;;
67272;SDS011;54190;49.770;9.250;2023-08-30T13:51:24;3.37;;;2.50;;
67272;SDS011;54190;49.770;9.250;2023-08-30T13:53:51;4.77;;;2.97;;
67272;SDS011;54190;49.770;9.250;2023-08-30T13:56:18;3.27;;;2.47;;
67272;SDS011;54190;49.770;9.250;2023-08-30T13:58:44;3.00;;;2.30;;
67272;SDS011;54190;49.770;9.250;2023-08-30T14:01:10;3.30;;;2.57;;
67272;SDS011;54190;49.770;9.250;2023-08-30T14:03:36;3.50;;;2.57;;
67272;SDS011;54190;49.770;9.250;2023-08-30T14:06:02;6.40;;;2.80;;
67272;SDS011;54190;49.770;9.250;2023-08-30T14:08:28;3.33;;;2.73;;
67272;SDS011;54190;49.770;9.250;2023-08-30T14:10:54;3.57;;;2.47;;
67272;SDS011;54190;49.770;9.250;2023-08-30T14:13:20;5.07;;;2.63;;
67272;SDS011;54190;49.770;9.250;2023-08-30T14:15:46;5.30;;;3.23;;
67272;SDS011;54190;49.770;9.250;2023-08-30T14:18:12;3.60;;;2.80;;
67272;SDS011;54190;49.770;9.250;2023-08-30T14:20:38;5.17;;;2.93;;
67272;SDS011;54190;49.770;9.250;2023-08-30T14:23:04;4.90;;;3.40;;
67272;SDS011;54190;49.770;9.250;2023-08-30T14:25:29;5.03;;;3.20;;
67272;SDS011;54190;49.770;9.250;2023-08-30T14:27:55;4.90;;;3.20;;
67272;SDS011;54190;49.770;9.250;2023-08-30T14:30:21;4.70;;;3.00;;
67272;SDS011;54190;49.770;9.250;2023-08-30T14:32:46;3.80;;;3.10;;
67272;SDS011;54190;49.770;9.250;2023-08-30T14:35:12;4.07;;;3.00;;
67272;SDS011;54190;49.770;9.250;2023-08-30T14:37:38;3.30;;;2.87;;
67272;SDS011;54190;49.770;9.250;2023-08-30T14:40:05;5.73;;;3.00;;
67272;SDS011;54190;49.770;9.250;2023-08-30T14:42:31;4.10;;;3.17;;
67272;SDS011;54190;49.770;9.250;2023-08-30T14:44:57;3.77;;;3.13;;